Time;durP1;ratioP1;P1;durP2;ratioP2;P2;SDS_P1;SDS_P2;PMS_P1;PMS_P2;Temp;Humidity;BMP_temperature;BMP_pressure;BME280_temperature;BME280_humidity;BME280_pressure;Samples;Min_cycle;Max_cycle;Signal;HPM_P1;HPM_P2
2023/08/03 00:04:17;;;;;;;6.32;4.43;;;;;;;19.21;95.17;99999.25;10522210;28;20047;-75
2023/08/03 00:09:19;;;;;;;7.90;5.00;;;;;;;18.94;96.52;99990.56;10505278;28;20037;-75
2023/08/03 00:14:22;;;;;;;5.15;4.60;;;;;;;18.93;97.91;99982.59;10500493;28;20049;-76
2023/08/03 00:19:24;;;;;;;6.03;4.38;;;;;;;18.84;99.23;99990.25;10500474;28;20037;-76
2023/08/03 00:24:26;;;;;;;6.38;4.53;;;;;;;18.83;99.55;99983.88;10525301;28;20051;-76
2023/08/03 00:29:28;;;;;;;6.40;4.10;;;;;;;18.90;99.98;99989.63;10473047;28;20041;-76
2023/08/03 00:34:30;;;;;;;6.22;4.57;;;;;;;18.83;100.00;99980.28;10516188;28;20040;-76
2023/08/03 00:39:33;;;;;;;5.32;4.03;;;;;;;18.97;99.07;99975.97;10471972;28;20040;-76
2023/08/03 00:44:35;;;;;;;6.95;4.38;;;;;;;18.89;98.48;99976.09;10508491;28;20037;-75
2023/08/03 00:49:37;;;;;;;10.27;4.65;;;;;;;18.90;99.36;99980.47;10509386;28;20040;-76
2023/08/03 00:54:40;;;;;;;5.60;4.22;;;;;;;18.78;99.03;99975.78;10513332;28;20048;-76
2023/08/03 00:59:44;;;;;;;5.25;4.18;;;;;;;18.59;98.82;99975.59;10483498;28;20033;-75
2023/08/03 01:04:46;;;;;;;6.38;4.65;;;;;;;18.49;99.45;99973.28;10531791;28;20499;-76
2023/08/03 01:09:48;;;;;;;4.95;4.35;;;;;;;18.48;100.00;99969.69;10510625;28;20075;-76
2023/08/03 01:14:51;;;;;;;5.88;4.20;;;;;;;18.54;100.00;99964.69;10488670;28;20048;-75
2023/08/03 01:19:53;;;;;;;4.13;3.72;;;;;;;18.59;100.00;99956.94;10520670;28;20392;-76
2023/08/03 01:24:56;;;;;;;6.88;4.55;;;;;;;18.61;100.00;99949.06;10511562;28;20041;-76
2023/08/03 01:29:58;;;;;;;5.75;4.05;;;;;;;18.87;99.74;99951.41;10510241;28;20059;-76
2023/08/03 01:35:00;;;;;;;5.10;3.97;;;;;;;18.94;98.38;99950.84;10527272;28;20052;-76
2023/08/03 01:40:03;;;;;;;8.27;4.53;;;;;;;19.09;96.77;99941.72;10523808;28;20044;-75
2023/08/03 01:45:06;;;;;;;5.45;4.00;;;;;;;19.11;96.81;99944.16;10494586;28;20045;-75
2023/08/03 01:50:08;;;;;;;6.00;4.85;;;;;;;18.89;97.51;99942.72;10507378;28;20045;-75
2023/08/03 01:55:11;;;;;;;5.38;4.22;;;;;;;18.82;97.12;99946.13;10510349;28;20127;-75
2023/08/03 02:00:13;;;;;;;8.45;5.30;;;;;;;18.74;97.63;99947.06;10489852;28;20613;-76
2023/08/03 02:05:15;;;;;;;7.57;5.25;;;;;;;18.63;99.13;99957.06;10520881;28;20047;-76
2023/08/03 02:10:17;;;;;;;5.75;4.57;;;;;;;18.44;99.56;99973.53;10493869;28;20062;-76
2023/08/03 02:15:20;;;;;;;8.73;5.78;;;;;;;18.35;100.00;99981.97;10509907;28;20036;-75
2023/08/03 02:20:22;;;;;;;7.45;5.57;;;;;;;18.08;100.00;99986.31;10508257;28;20052;-75
2023/08/03 02:25:24;;;;;;;6.20;4.32;;;;;;;17.93;100.00;99986.97;10508230;28;20041;-75
2023/08/03 02:30:27;;;;;;;5.90;4.50;;;;;;;17.81;100.00;99984.19;10485350;28;20490;-75
2023/08/03 02:35:29;;;;;;;5.18;4.45;;;;;;;17.87;100.00;99982.81;10507507;28;20051;-75
2023/08/03 02:40:34;;;;;;;5.95;4.22;;;;;;;17.87;100.00;99986.38;10475437;28;20079;-75
2023/08/03 02:45:36;;;;;;;6.45;4.55;;;;;;;17.88;100.00;99979.72;10497353;28;20044;-75
2023/08/03 02:50:41;;;;;;;5.47;4.15;;;;;;;17.86;100.00;99982.00;10483010;28;20044;-75
2023/08/03 02:55:48;;;;;;;5.32;3.92;;;;;;;17.99;100.00;99977.25;10492153;28;20048;-75
2023/08/03 03:00:50;;;;;;;4.60;4.00;;;;;;;18.00;100.00;99976.91;10507819;28;20036;-75
2023/08/03 03:05:53;;;;;;;6.53;4.60;;;;;;;18.08;100.00;99975.19;10472428;28;20518;-76
2023/08/03 03:10:56;;;;;;;5.45;4.20;;;;;;;18.01;100.00;99974.94;10468527;28;20494;-76
2023/08/03 03:15:59;;;;;;;10.60;4.85;;;;;;;18.02;100.00;99971.81;10477806;28;20339;-76
2023/08/03 03:21:01;;;;;;;5.43;4.10;;;;;;;18.08;100.00;99975.19;10522744;28;20475;-75
2023/08/03 03:26:04;;;;;;;6.70;4.50;;;;;;;18.29;100.00;99977.84;10476975;28;20095;-76
2023/08/03 03:31:06;;;;;;;5.57;4.18;;;;;;;18.26;100.00;99984.09;10471291;28;20036;-76
2023/08/03 03:36:08;;;;;;;6.63;4.30;;;;;;;18.23;100.00;99982.81;10495993;28;20040;-76
2023/08/03 03:41:11;;;;;;;5.88;4.22;;;;;;;18.24;100.00;99995.56;10483952;28;20059;-76
2023/08/03 03:46:17;;;;;;;9.05;3.95;;;;;;;18.25;100.00;99997.16;10489715;28;20036;-76
2023/08/03 03:51:21;;;;;;;7.38;4.75;;;;;;;18.14;100.00;100000.75;10498280;28;20040;-76
2023/08/03 03:56:27;;;;;;;8.55;5.13;;;;;;;18.14;100.00;99989.63;10478174;28;20045;-75
2023/08/03 04:01:30;;;;;;;5.13;4.07;;;;;;;18.18;100.00;99991.38;10503540;28;20044;-75
2023/08/03 04:06:32;;;;;;;8.85;4.82;;;;;;;18.25;100.00;99994.38;10502125;28;20079;-76
2023/08/03 04:11:34;;;;;;;9.98;5.13;;;;;;;18.19;100.00;99994.97;10517124;28;20045;-76
2023/08/03 04:16:37;;;;;;;7.80;5.22;;;;;;;18.26;100.00;99982.13;10487625;28;20037;-77
2023/08/03 04:21:40;;;;;;;7.85;5.45;;;;;;;18.24;100.00;99981.66;10510746;28;20036;-76
2023/08/03 04:26:42;;;;;;;9.98;5.05;;;;;;;18.41;100.00;99969.50;10528328;28;20052;-76
2023/08/03 04:31:50;;;;;;;6.97;4.78;;;;;;;18.28;100.00;99968.69;10510817;28;20036;-77
2023/08/03 04:36:53;;;;;;;11.20;6.35;;;;;;;18.13;100.00;99966.63;10512375;28;20514;-77
2023/08/03 04:41:56;;;;;;;10.02;5.95;;;;;;;17.94;100.00;99969.19;10511017;28;20554;-76
2023/08/03 04:46:59;;;;;;;9.55;5.07;;;;;;;18.24;100.00;99965.00;10492251;28;20147;-76
2023/08/03 04:52:02;;;;;;;7.63;5.70;;;;;;;18.21;100.00;99959.31;10511515;28;20048;-76
2023/08/03 04:57:05;;;;;;;10.15;6.65;;;;;;;18.07;100.00;99954.13;10529278;28;20048;-76
2023/08/03 05:02:13;;;;;;;11.90;7.18;;;;;;;18.06;100.00;99971.97;10503971;28;20040;-77
2023/08/03 05:07:16;;;;;;;7.75;5.47;;;;;;;18.11;100.00;99974.50;10511675;28;20506;-77
2023/08/03 05:12:20;;;;;;;9.50;6.57;;;;;;;18.18;100.00;99979.44;10510481;28;20049;-76
2023/08/03 05:17:22;;;;;;;12.07;6.93;;;;;;;18.14;100.00;99971.00;10519264;28;20507;-76
2023/08/03 05:22:24;;;;;;;9.38;6.40;;;;;;;18.07;100.00;99974.38;10472514;28;20066;-76
2023/08/03 05:27:27;;;;;;;11.38;6.53;;;;;;;18.01;100.00;99970.19;10490141;28;20242;-76
2023/08/03 05:32:30;;;;;;;11.50;7.28;;;;;;;18.15;100.00;99974.59;10506989;28;20049;-76
2023/08/03 05:37:32;;;;;;;10.55;5.57;;;;;;;18.25;100.00;99972.16;10496616;28;20036;-76
2023/08/03 05:42:38;;;;;;;10.07;6.22;;;;;;;18.25;100.00;99977.72;10513802;28;20043;-76
2023/08/03 05:47:41;;;;;;;15.98;8.70;;;;;;;18.20;100.00;99977.13;10503043;28;20041;-76
2023/08/03 05:52:43;;;;;;;14.02;7.75;;;;;;;18.13;100.00;99980.50;10526151;28;20040;-77
2023/08/03 05:57:46;;;;;;;13.85;8.57;;;;;;;18.15;100.00;99980.97;10525232;28;20056;-77
2023/08/03 06:02:49;;;;;;;16.83;9.65;;;;;;;18.06;100.00;99975.53;10500859;28;20040;-76
2023/08/03 06:07:51;;;;;;;15.63;8.95;;;;;;;18.03;100.00;99980.97;10492447;28;20036;-76
2023/08/03 06:12:53;;;;;;;18.13;9.13;;;;;;;18.00;100.00;99984.44;10526899;28;20051;-76
2023/08/03 06:18:02;;;;;;;17.38;8.77;;;;;;;17.90;100.00;99974.63;10524095;28;20063;-77
2023/08/03 06:23:04;;;;;;;11.10;7.53;;;;;;;18.12;100.00;99978.06;10526934;28;20048;-76
2023/08/03 06:28:09;;;;;;;12.32;8.07;;;;;;;18.10;100.00;99977.63;10502213;28;20045;-76
2023/08/03 06:33:14;;;;;;;14.15;8.75;;;;;;;17.99;100.00;99978.06;10527700;28;20410;-76
2023/08/03 06:38:22;;;;;;;10.35;6.43;;;;;;;17.93;100.00;99975.88;10506436;28;20040;-76
2023/08/03 06:43:24;;;;;;;11.02;8.23;;;;;;;17.94;100.00;99980.28;10501569;28;20411;-76
2023/08/03 06:48:26;;;;;;;8.77;5.75;;;;;;;17.90;100.00;99968.25;10503231;28;20525;-76
2023/08/03 06:53:30;;;;;;;12.73;7.45;;;;;;;18.00;100.00;99967.78;10518964;28;20054;-77
2023/08/03 06:58:32;;;;;;;12.05;8.32;;;;;;;18.12;100.00;99973.34;10520886;28;20067;-77
2023/08/03 07:03:35;;;;;;;10.73;7.35;;;;;;;18.20;100.00;99977.13;10502387;28;20068;-76
2023/08/03 07:08:37;;;;;;;9.73;7.38;;;;;;;18.15;100.00;99977.38;10487505;28;20043;-75
2023/08/03 07:13:40;;;;;;;10.93;7.50;;;;;;;18.20;100.00;99969.59;10512440;28;20071;-75
2023/08/03 07:18:42;;;;;;;10.45;7.68;;;;;;;18.40;100.00;99976.22;10498482;28;20048;-75
2023/08/03 07:23:44;;;;;;;13.60;9.50;;;;;;;18.44;100.00;99976.31;10506648;28;20041;-75
2023/08/03 07:28:46;;;;;;;13.05;8.68;;;;;;;18.56;100.00;99987.38;10514029;28;20036;-75
2023/08/03 07:33:49;;;;;;;16.25;9.07;;;;;;;18.80;100.00;99979.03;10521664;28;20514;-77
2023/08/03 07:38:52;;;;;;;17.52;11.52;;;;;;;18.79;100.00;99977.41;10491827;28;20625;-77
2023/08/03 07:43:55;;;;;;;14.55;9.25;;;;;;;18.88;100.00;99975.28;10512122;28;20036;-73
2023/08/03 07:49:02;;;;;;;13.07;8.82;;;;;;;19.04;99.56;99980.09;10502437;28;20051;-75
2023/08/03 07:54:04;;;;;;;16.48;10.13;;;;;;;19.13;98.59;99970.44;10522094;28;20041;-75
2023/08/03 07:59:10;;;;;;;12.30;9.32;;;;;;;19.34;97.67;99955.50;10523169;28;20033;-73
2023/08/03 08:04:14;;;;;;;12.50;8.95;;;;;;;19.36;97.08;99962.31;10525365;28;20414;-74
2023/08/03 08:09:16;;;;;;;11.73;8.70;;;;;;;19.19;97.29;99957.88;10528163;28;20514;-74
2023/08/03 08:14:18;;;;;;;9.75;7.25;;;;;;;19.28;96.25;99960.53;10527351;28;20048;-73
2023/08/03 08:19:20;;;;;;;8.55;6.28;;;;;;;19.30;96.67;99954.59;10520311;28;20447;-76
2023/08/03 08:24:22;;;;;;;9.15;7.43;;;;;;;19.38;94.55;99964.75;10511504;28;20041;-76
2023/08/03 08:29:25;;;;;;;10.32;7.20;;;;;;;19.72;92.65;99954.94;10510429;28;20033;-74
2023/08/03 08:34:27;;;;;;;9.07;7.38;;;;;;;20.41;88.26;99959.81;10529478;28;20037;-74
2023/08/03 08:39:29;;;;;;;6.13;5.05;;;;;;;20.24;88.69;99962.16;10529143;28;20029;-73
2023/08/03 08:44:32;;;;;;;9.80;6.55;;;;;;;20.05;87.50;99982.41;10523010;28;20483;-73
2023/08/03 08:49:35;;;;;;;6.05;4.45;;;;;;;19.97;87.93;99966.69;10522929;28;20033;-75
2023/08/03 08:54:37;;;;;;;6.53;5.20;;;;;;;20.27;87.58;99973.38;10501696;28;20063;-73
2023/08/03 08:59:43;;;;;;;7.68;5.97;;;;;;;20.80;85.46;99972.97;10516280;28;20036;-73
2023/08/03 09:04:45;;;;;;;7.97;6.72;;;;;;;20.81;84.28;99964.25;10460781;28;20392;-74
2023/08/03 09:09:47;;;;;;;6.65;4.40;;;;;;;20.85;83.40;99953.19;10519266;28;20521;-75
2023/08/03 09:14:50;;;;;;;5.25;4.28;;;;;;;21.63;80.41;99937.94;10507670;28;20028;-73
2023/08/03 09:19:53;;;;;;;7.95;5.60;;;;;;;21.30;80.85;99958.88;10514993;28;20053;-73
2023/08/03 09:25:07;;;;;;;8.85;6.15;;;;;;;20.84;82.98;99965.50;10527996;28;20043;-75
2023/08/03 09:30:09;;;;;;;7.35;5.47;;;;;;;20.84;83.60;99971.09;10527789;28;20521;-73
2023/08/03 09:35:21;;;;;;;9.77;5.70;;;;;;;21.06;82.84;99951.63;10523333;28;20116;-73
2023/08/03 09:40:24;;;;;;;8.32;5.88;;;;;;;21.03;82.09;99949.59;10519871;28;20043;-73
2023/08/03 09:45:27;;;;;;;5.80;4.38;;;;;;;21.40;81.81;99946.31;10514772;28;20060;-73
2023/08/03 09:50:31;;;;;;;7.80;6.03;;;;;;;21.51;80.16;99949.28;10492781;28;20099;-74
2023/08/03 09:55:36;;;;;;;5.82;4.28;;;;;;;21.64;79.31;99940.34;10505272;28;20052;-74
2023/08/03 10:00:44;;;;;;;5.20;4.50;;;;;;;21.68;78.92;99927.25;10506779;28;20044;-74
2023/08/03 10:06:16;;;;;;;5.47;4.68;;;;;;;21.57;78.72;99914.31;10508979;28;20063;-74
2023/08/03 10:11:20;;;;;;;4.32;2.85;;;;;;;21.35;80.50;99900.00;10525302;28;20044;-74
2023/08/03 10:16:23;;;;;;;6.63;5.25;;;;;;;21.26;80.56;99896.63;10503706;28;20048;-86
2023/08/03 10:21:26;;;;;;;4.90;3.78;;;;;;;21.39;78.39;99890.88;10499145;28;20056;-85
2023/08/03 10:26:29;;;;;;;6.32;3.80;;;;;;;21.84;76.43;99899.19;10527993;28;20046;-85
2023/08/03 10:31:31;;;;;;;5.85;4.05;;;;;;;22.31;74.33;99900.72;10484134;28;20052;-82
2023/08/03 10:36:43;;;;;;;5.00;3.70;;;;;;;22.27;74.24;99883.09;10502594;28;20040;-87
2023/08/03 10:41:49;;;;;;;5.15;4.20;;;;;;;22.20;73.85;99882.97;10519729;28;20040;-84
2023/08/03 10:46:56;;;;;;;6.57;4.97;;;;;;;22.05;75.50;99895.16;10526137;28;20045;-85
2023/08/03 10:52:17;;;;;;;5.40;4.55;;;;;;;21.86;76.02;99882.06;10503971;28;20040;-80
2023/08/03 10:57:25;;;;;;;4.78;3.35;;;;;;;22.01;75.19;99885.88;10487992;28;20060;-81
2023/08/03 11:02:29;;;;;;;5.05;3.78;;;;;;;21.67;75.70;99885.75;10487416;28;20410;-77
2023/08/03 11:07:37;;;;;;;4.93;3.72;;;;;;;21.48;76.07;99874.66;10520875;28;20053;-79
2023/08/03 11:12:40;;;;;;;5.07;3.38;;;;;;;21.58;76.65;99860.09;10524030;28;20035;-78
2023/08/03 11:17:47;;;;;;;3.90;2.97;;;;;;;21.71;75.89;99844.75;10474526;28;20055;-81
2023/08/03 11:22:49;;;;;;;4.90;3.67;;;;;;;21.67;76.87;99844.66;10513512;28;20037;-74
2023/08/03 11:27:52;;;;;;;4.97;3.75;;;;;;;21.96;76.82;99842.31;10519125;28;20060;-72
2023/08/03 11:32:58;;;;;;;7.10;4.13;;;;;;;21.98;76.27;99832.38;10528470;28;20415;-73
2023/08/03 11:38:00;;;;;;;6.13;3.67;;;;;;;21.83;76.47;99829.75;10482209;28;20036;-71
2023/08/03 11:43:08;;;;;;;4.18;3.08;;;;;;;21.82;77.31;99834.53;10476745;28;20032;-72
2023/08/03 11:48:10;;;;;;;5.38;3.92;;;;;;;21.82;76.84;99834.53;10516651;28;20059;-72
2023/08/03 11:53:23;;;;;;;4.00;3.58;;;;;;;22.43;74.91;99838.19;10490357;28;20033;-73
2023/08/03 11:58:26;;;;;;;5.13;3.83;;;;;;;22.20;76.17;99843.88;10506192;28;20040;-79
2023/08/03 12:03:33;;;;;;;4.57;3.25;;;;;;;22.09;75.97;99828.97;10522270;28;20040;-79
2023/08/03 12:08:42;;;;;;;6.85;4.30;;;;;;;22.29;74.01;99815.63;10514893;28;20056;-76
2023/08/03 12:13:44;;;;;;;5.35;4.20;;;;;;;22.27;75.21;99827.19;10521013;28;20069;-76
2023/08/03 12:18:46;;;;;;;6.28;4.60;;;;;;;22.19;75.50;99809.53;10512906;28;20048;-75
2023/08/03 12:23:49;;;;;;;6.57;5.05;;;;;;;21.87;76.54;99806.28;10499934;28;20385;-75
2023/08/03 12:28:51;;;;;;;7.63;5.15;;;;;;;21.79;77.48;99798.97;10516900;28;20036;-76
2023/08/03 12:33:53;;;;;;;9.27;5.95;;;;;;;22.08;77.19;99793.81;10518836;28;20527;-76
2023/08/03 12:38:56;;;;;;;7.50;6.38;;;;;;;22.12;76.38;99792.69;10501669;28;20037;-76
2023/08/03 12:43:59;;;;;;;8.65;6.45;;;;;;;22.24;76.61;99772.06;10519564;28;20052;-74
2023/08/03 12:49:01;;;;;;;11.93;7.00;;;;;;;22.29;75.84;99782.91;10508779;28;20474;-74
2023/08/03 12:54:05;;;;;;;5.82;4.80;;;;;;;22.31;75.88;99758.16;10526840;28;20048;-72
2023/08/03 12:59:07;;;;;;;9.32;7.15;;;;;;;22.08;77.61;99760.28;10516039;28;20029;-72
2023/08/03 13:04:09;;;;;;;9.57;6.47;;;;;;;21.98;78.95;99775.69;10507308;28;20060;-72
2023/08/03 13:09:12;;;;;;;10.30;6.20;;;;;;;21.92;79.34;99764.06;10520987;28;20506;-72
2023/08/03 13:14:14;;;;;;;8.63;6.93;;;;;;;21.83;80.51;99780.28;10510275;28;20044;-73
2023/08/03 13:19:16;;;;;;;9.50;6.75;;;;;;;22.07;79.57;99772.66;10500055;28;20052;-72
2023/08/03 13:24:20;;;;;;;10.25;8.00;;;;;;;22.11;79.42;99781.88;10521008;28;20032;-72
2023/08/03 13:29:24;;;;;;;12.65;9.20;;;;;;;22.23;78.75;99774.06;10499071;28;20051;-73
2023/08/03 13:34:26;;;;;;;9.38;6.95;;;;;;;22.31;78.90;99777.72;10506072;28;20051;-73
2023/08/03 13:39:29;;;;;;;10.32;7.45;;;;;;;22.48;78.09;99754.78;10529385;28;20036;-73
2023/08/03 13:44:31;;;;;;;10.65;7.30;;;;;;;22.37;79.55;99745.44;10515578;28;20052;-73
2023/08/03 13:49:36;;;;;;;11.93;7.60;;;;;;;22.44;79.80;99730.78;10512597;28;20048;-75
2023/08/03 13:54:38;;;;;;;12.45;9.38;;;;;;;22.04;83.08;99728.66;10510942;28;20041;-72
2023/08/03 13:59:40;;;;;;;10.23;7.25;;;;;;;21.57;87.57;99713.31;10495900;28;20040;-72
2023/08/03 14:04:42;;;;;;;11.90;9.93;;;;;;;21.45;87.82;99708.75;10480672;28;20415;-72
2023/08/03 14:09:46;;;;;;;20.25;12.07;;;;;;;21.63;87.41;99726.53;10501804;28;20517;-72
2023/08/03 14:14:49;;;;;;;15.98;9.70;;;;;;;21.66;86.92;99724.97;10500373;28;20037;-73
2023/08/03 14:19:51;;;;;;;15.25;9.77;;;;;;;21.64;87.79;99716.19;10473987;28;20037;-74
2023/08/03 14:24:57;;;;;;;13.88;9.05;;;;;;;21.67;88.55;99729.38;10498478;28;20048;-72
2023/08/03 14:30:00;;;;;;;13.20;8.77;;;;;;;21.58;89.37;99721.31;10462535;28;20052;-73
2023/08/03 14:35:04;;;;;;;14.85;9.13;;;;;;;21.54;89.43;99706.50;10478237;28;20519;-72
2023/08/03 14:40:08;;;;;;;9.07;7.43;;;;;;;21.66;88.98;99702.66;10448619;28;20441;-73
2023/08/03 14:45:10;;;;;;;14.05;8.40;;;;;;;21.72;87.78;99692.78;10445255;28;20603;-73
2023/08/03 14:50:12;;;;;;;17.83;12.55;;;;;;;21.61;89.43;99716.94;10445348;28;20053;-73
2023/08/03 14:55:15;;;;;;;12.35;9.23;;;;;;;21.66;89.34;99724.97;10476617;28;20051;-73
2023/08/03 15:00:17;;;;;;;12.07;8.60;;;;;;;21.79;89.55;99706.81;10527844;28;20063;-73
2023/08/03 15:05:19;;;;;;;10.05;7.70;;;;;;;22.01;88.26;99704.28;10500457;28;20061;-73
2023/08/03 15:10:26;;;;;;;13.98;9.70;;;;;;;21.96;89.47;99733.38;10514332;28;20589;-74
2023/08/03 15:15:30;;;;;;;10.38;5.72;;;;;;;20.24;93.76;99747.63;10531127;28;20411;-73
2023/08/03 15:20:32;;;;;;;5.45;3.42;;;;;;;18.94;99.05;99704.22;10527620;28;20048;-73
2023/08/03 15:25:34;;;;;;;3.72;2.80;;;;;;;18.92;100.00;99705.72;10527464;28;20059;-73
2023/08/03 15:30:37;;;;;;;4.50;3.78;;;;;;;19.20;100.00;99709.19;10530481;28;20048;-73
2023/08/03 15:35:43;;;;;;;6.60;4.88;;;;;;;19.22;100.00;99683.78;10526708;28;20056;-73
2023/08/03 15:40:45;;;;;;;6.72;5.13;;;;;;;19.25;100.00;99706.09;10526935;28;20032;-73
2023/08/03 15:45:48;;;;;;;4.82;4.18;;;;;;;19.66;100.00;99697.53;10526553;28;20048;-73
2023/08/03 15:50:50;;;;;;;6.65;4.72;;;;;;;19.77;100.00;99693.78;10526626;28;20044;-73
2023/08/03 15:55:53;;;;;;;5.93;4.82;;;;;;;19.77;100.00;99679.84;10524787;28;20056;-73
2023/08/03 16:00:56;;;;;;;5.82;5.18;;;;;;;19.78;100.00;99666.75;10485575;28;20044;-73
2023/08/03 16:06:07;;;;;;;8.68;5.55;;;;;;;19.80;100.00;99687.50;10526368;28;20055;-73
2023/08/03 16:11:10;;;;;;;7.55;4.82;;;;;;;19.82;100.00;99698.25;10526018;28;20052;-73
2023/08/03 16:16:12;;;;;;;7.05;4.95;;;;;;;19.82;100.00;99701.84;10528605;28;20495;-73
2023/08/03 16:21:15;;;;;;;8.23;5.47;;;;;;;19.84;100.00;99705.06;10534962;28;20502;-73
2023/08/03 16:26:17;;;;;;;7.38;5.35;;;;;;;19.91;100.00;99709.16;10533848;28;20044;-73
2023/08/03 16:31:19;;;;;;;10.00;6.38;;;;;;;19.92;100.00;99721.91;10534464;28;20044;-73
2023/08/03 16:36:21;;;;;;;7.00;5.65;;;;;;;19.91;100.00;99717.53;10533955;28;20063;-73
2023/08/03 16:41:24;;;;;;;13.00;7.75;;;;;;;19.81;100.00;99719.72;10527167;28;20045;-73
2023/08/03 16:46:26;;;;;;;11.75;7.00;;;;;;;19.79;100.00;99707.34;10570686;28;20405;-73
2023/08/03 16:51:28;;;;;;;9.65;6.80;;;;;;;19.80;100.00;99708.97;10574606;28;20506;-73
2023/08/03 16:56:30;;;;;;;8.60;6.65;;;;;;;19.82;100.00;99717.75;10574812;28;20044;-73
2023/08/03 17:01:33;;;;;;;8.63;6.15;;;;;;;20.04;100.00;99721.78;10574771;28;20036;-73
2023/08/03 17:06:35;;;;;;;8.68;6.97;;;;;;;20.00;100.00;99716.13;10556306;28;20433;-73
2023/08/03 17:11:37;;;;;;;10.18;6.97;;;;;;;19.99;100.00;99710.94;10555718;28;20058;-74
2023/08/03 17:16:39;;;;;;;12.25;8.10;;;;;;;20.04;100.00;99705.88;10530570;28;20040;-73
2023/08/03 17:21:42;;;;;;;10.02;6.82;;;;;;;19.98;100.00;99692.63;10531192;28;20048;-73
2023/08/03 17:26:44;;;;;;;11.88;8.75;;;;;;;19.95;100.00;99696.13;10531169;28;20056;-74
2023/08/03 17:31:47;;;;;;;11.40;8.18;;;;;;;19.87;100.00;99700.75;10519961;28;20047;-72
2023/08/03 17:36:49;;;;;;;9.98;7.22;;;;;;;19.77;100.00;99704.09;10526608;28;20415;-74
2023/08/03 17:41:52;;;;;;;10.82;6.75;;;;;;;19.68;100.00;99684.84;10514755;28;20045;-75
2023/08/03 17:46:56;;;;;;;9.23;6.53;;;;;;;19.67;100.00;99694.38;10499556;28;20411;-74
2023/08/03 17:51:59;;;;;;;8.48;5.90;;;;;;;19.61;100.00;99706.94;10497862;28;20043;-74
2023/08/03 17:57:03;;;;;;;8.18;5.57;;;;;;;19.61;100.00;99711.69;10529104;28;20062;-76
2023/08/03 18:02:05;;;;;;;9.38;5.45;;;;;;;19.65;100.00;99732.91;10506205;28;20045;-76
2023/08/03 18:07:13;;;;;;;8.88;5.03;;;;;;;19.73;100.00;99744.97;10517455;28;20048;-74
2023/08/03 18:12:15;;;;;;;9.18;5.63;;;;;;;19.77;100.00;99748.63;10500691;28;20044;-74
2023/08/03 18:17:17;;;;;;;7.32;5.13;;;;;;;19.80;100.00;99736.81;10489603;28;20049;-75
2023/08/03 18:22:20;;;;;;;9.10;5.57;;;;;;;19.83;100.00;99731.31;10504165;28;20556;-75
2023/08/03 18:27:22;;;;;;;6.07;4.78;;;;;;;19.74;100.00;99715.97;10518400;28;20051;-73
2023/08/03 18:32:24;;;;;;;7.03;4.95;;;;;;;19.57;100.00;99692.16;10522184;28;20043;-73
2023/08/03 18:37:27;;;;;;;5.50;4.55;;;;;;;19.47;100.00;99682.38;10492920;28;20048;-73
2023/08/03 18:42:29;;;;;;;5.50;4.95;;;;;;;19.43;100.00;99689.81;10489724;28;20044;-74
2023/08/03 18:47:32;;;;;;;7.88;5.03;;;;;;;19.38;100.00;99687.34;10539298;28;20051;-76
2023/08/03 18:52:34;;;;;;;7.88;4.53;;;;;;;19.35;100.00;99690.03;10516674;28;20036;-75
2023/08/03 18:57:36;;;;;;;5.70;4.28;;;;;;;19.34;100.00;99691.22;10504124;28;20541;-76
2023/08/03 19:02:39;;;;;;;6.97;4.32;;;;;;;19.42;100.00;99682.66;10516881;28;20047;-81
2023/08/03 19:07:43;;;;;;;6.43;5.03;;;;;;;19.27;100.00;99677.97;10511696;28;20041;-84
2023/08/03 19:12:45;;;;;;;5.35;4.60;;;;;;;19.38;100.00;99698.47;10523162;28;20048;-80
2023/08/03 19:17:47;;;;;;;6.63;4.07;;;;;;;19.45;98.32;99701.41;10525714;28;20064;-78
2023/08/03 19:22:50;;;;;;;7.65;4.53;;;;;;;19.48;98.65;99692.34;10515083;28;20043;-87
2023/08/03 19:27:59;;;;;;;6.03;4.32;;;;;;;19.59;96.13;99675.88;10519352;28;20036;-80
2023/08/03 19:33:02;;;;;;;6.93;4.82;;;;;;;19.57;97.19;99676.25;10502890;28;20036;-80
2023/08/03 19:38:05;;;;;;;6.40;4.55;;;;;;;19.58;97.72;99677.88;10491498;28;20044;-80
2023/08/03 19:43:07;;;;;;;6.00;4.38;;;;;;;19.62;96.25;99691.06;10505790;28;20041;-82
2023/08/03 19:48:10;;;;;;;5.07;4.00;;;;;;;19.75;94.65;99681.41;10513951;28;20036;-83
2023/08/03 19:53:17;;;;;;;5.25;4.20;;;;;;;19.71;94.24;99680.53;10493451;28;20056;-81
2023/08/03 19:58:19;;;;;;;6.50;4.27;;;;;;;19.73;94.67;99681.75;10523904;28;20041;-85
2023/08/03 20:03:22;;;;;;;6.50;4.47;;;;;;;19.86;93.39;99696.34;10519893;28;20040;-82
2023/08/03 20:08:24;;;;;;;5.13;4.60;;;;;;;19.86;93.12;99676.88;10481453;28;20045;-87
2023/08/03 20:13:27;;;;;;;4.05;3.30;;;;;;;19.86;92.05;99654.59;10529818;28;20036;-87
2023/08/03 20:18:29;;;;;;;5.95;3.35;;;;;;;19.91;91.86;99650.69;10513839;28;20052;-83
2023/08/03 20:23:31;;;;;;;6.63;3.60;;;;;;;19.94;91.34;99653.53;10529277;28;20032;-83
2023/08/03 20:28:34;;;;;;;4.38;3.67;;;;;;;19.96;90.50;99662.34;10515490;28;20040;-82
2023/08/03 20:33:36;;;;;;;3.72;3.05;;;;;;;19.96;89.50;99645.66;10515321;28;20036;-82
2023/08/03 20:38:38;;;;;;;5.13;4.40;;;;;;;20.01;89.12;99648.13;10524669;28;20064;-81
2023/08/03 20:43:41;;;;;;;4.47;3.38;;;;;;;20.04;88.40;99660.50;10512422;28;20041;-81
2023/08/03 20:48:48;;;;;;;4.40;3.38;;;;;;;20.03;88.30;99656.91;10531489;28;20431;-81
2023/08/03 20:53:52;;;;;;;5.10;2.85;;;;;;;20.08;87.76;99656.59;10530042;28;20048;-76
2023/08/03 20:58:54;;;;;;;3.58;3.03;;;;;;;20.12;85.87;99648.31;10497945;28;20036;-79
2023/08/03 21:03:56;;;;;;;3.80;3.03;;;;;;;20.22;85.37;99652.47;10509629;28;20612;-77
2023/08/03 21:08:59;;;;;;;4.05;3.05;;;;;;;20.14;85.84;99659.91;10526067;28;20632;-81
2023/08/03 21:14:01;;;;;;;3.70;2.90;;;;;;;20.27;84.10;99674.47;10526909;28;20051;-81
2023/08/03 21:19:03;;;;;;;3.97;2.92;;;;;;;20.27;83.34;99671.66;10520090;28;20045;-85
2023/08/03 21:24:08;;;;;;;2.72;2.47;;;;;;;20.23;82.94;99670.81;10481663;28;20056;-84
2023/08/03 21:29:10;;;;;;;3.38;2.83;;;;;;;20.26;82.96;99661.72;10512985;28;20049;-76
2023/08/03 21:34:13;;;;;;;3.85;3.08;;;;;;;20.28;82.19;99664.94;10528892;28;20051;-80
2023/08/03 21:39:15;;;;;;;5.13;2.90;;;;;;;20.29;81.81;99669.31;10497731;28;20438;-77
2023/08/03 21:44:18;;;;;;;2.85;2.47;;;;;;;20.36;80.32;99673.06;10523031;28;20052;-78
2023/08/03 21:49:21;;;;;;;4.63;2.55;;;;;;;20.42;80.40;99662.44;10520449;28;20037;-77
2023/08/03 21:54:23;;;;;;;3.72;2.75;;;;;;;20.49;79.25;99670.13;10493362;28;20061;-75
2023/08/03 21:59:26;;;;;;;3.47;2.55;;;;;;;20.49;77.80;99670.13;10474317;28;20514;-76
2023/08/03 22:04:28;;;;;;;3.80;2.90;;;;;;;20.52;77.47;99667.41;10470525;28;20048;-77
2023/08/03 22:09:30;;;;;;;3.40;2.58;;;;;;;20.53;77.25;99669.00;10481890;28;20057;-76
2023/08/03 22:14:33;;;;;;;3.50;2.63;;;;;;;20.49;77.60;99676.50;10483835;28;20515;-76
2023/08/03 22:19:35;;;;;;;3.20;2.40;;;;;;;20.40;78.22;99676.72;10454006;28;20443;-75
2023/08/03 22:24:37;;;;;;;4.53;2.72;;;;;;;20.37;78.70;99677.44;10467318;28;20045;-85
2023/08/03 22:29:41;;;;;;;3.38;2.78;;;;;;;20.39;78.11;99674.28;10476493;28;20407;-79
2023/08/03 22:34:43;;;;;;;4.65;2.97;;;;;;;20.24;79.68;99666.84;10467771;28;20044;-78
2023/08/03 22:39:46;;;;;;;4.97;2.50;;;;;;;20.10;80.34;99661.81;10434253;28;20443;-80
2023/08/03 22:44:48;;;;;;;4.18;2.67;;;;;;;19.93;82.55;99670.63;10482156;28;20045;-84
2023/08/03 22:49:50;;;;;;;4.22;3.03;;;;;;;19.70;84.20;99676.94;10474737;28;20052;-83
2023/08/03 22:54:53;;;;;;;5.32;3.15;;;;;;;19.58;85.68;99685.41;10475099;28;20423;-80
2023/08/03 22:59:55;;;;;;;5.70;2.58;;;;;;;19.57;85.87;99678.22;10521442;28;20506;-79
2023/08/03 23:04:57;;;;;;;5.07;3.00;;;;;;;19.55;85.88;99681.38;10503417;28;20094;-78
2023/08/03 23:10:05;;;;;;;3.50;2.75;;;;;;;19.52;85.37;99665.38;10492755;28;20535;-78
2023/08/03 23:15:13;;;;;;;5.32;3.20;;;;;;;19.62;84.94;99663.25;10502338;28;20048;-78
2023/08/03 23:20:20;;;;;;;3.08;2.70;;;;;;;19.61;84.96;99672.75;10505339;28;20051;-78